sensor_id;sensor_type;location;lat;lon;timestamp;P1;durP1;ratioP1;P2;durP2;ratioP2
75285;SDS011;63879;46.064;14.532;2024-03-07T07:00:50;23.50;;;10.60;;
75285;SDS011;63879;46.064;14.532;2024-03-07T07:03:23;21.80;;;9.90;;
75285;SDS011;63879;46.064;14.532;2024-03-07T07:05:49;24.15;;;10.90;;
75285;SDS011;63879;46.064;14.532;2024-03-07T07:08:15;24.58;;;13.65;;
75285;SDS011;63879;46.064;14.532;2024-03-07T07:10:41;21.08;;;10.00;;
75285;SDS011;63879;46.064;14.532;2024-03-07T07:13:08;23.27;;;9.85;;
75285;SDS011;63879;46.064;14.532;2024-03-07T07:15:35;23.95;;;10.15;;
75285;SDS011;63879;46.064;14.532;2024-03-07T07:18:02;21.85;;;10.48;;
75285;SDS011;63879;46.064;14.532;2024-03-07T07:20:28;18.70;;;9.10;;
75285;SDS011;63879;46.064;14.532;2024-03-07T07:22:54;22.00;;;9.85;;
75285;SDS011;63879;46.064;14.532;2024-03-07T07:25:20;25.75;;;10.82;;
75285;SDS011;63879;46.064;14.532;2024-03-07T07:30:13;24.88;;;10.40;;
75285;SDS011;63879;46.064;14.532;2024-03-07T07:32:42;22.05;;;10.88;;
75285;SDS011;63879;46.064;14.532;2024-03-07T07:35:09;24.60;;;15.13;;
75285;SDS011;63879;46.064;14.532;2024-03-07T07:40:08;24.38;;;10.20;;
75285;SDS011;63879;46.064;14.532;2024-03-07T07:42:37;24.98;;;10.95;;
75285;SDS011;63879;46.064;14.532;2024-03-07T07:45:05;25.50;;;11.20;;
75285;SDS011;63879;46.064;14.532;2024-03-07T07:49:58;23.77;;;9.88;;
75285;SDS011;63879;46.064;14.532;2024-03-07T07:52:23;20.73;;;10.35;;
75285;SDS011;63879;46.064;14.532;2024-03-07T07:54:49;22.27;;;10.35;;
75285;SDS011;63879;46.064;14.532;2024-03-07T07:57:14;23.42;;;10.98;;
75285;SDS011;63879;46.064;14.532;2024-03-07T07:59:40;17.75;;;8.82;;
75285;SDS011;63879;46.064;14.532;2024-03-07T08:02:05;21.75;;;11.07;;
75285;SDS011;63879;46.064;14.532;2024-03-07T08:04:31;25.15;;;11.90;;
75285;SDS011;63879;46.064;14.532;2024-03-07T08:06:57;20.00;;;9.95;;
75285;SDS011;63879;46.064;14.532;2024-03-07T08:09:23;21.63;;;10.05;;
75285;SDS011;63879;46.064;14.532;2024-03-07T08:11:48;21.02;;;9.10;;
75285;SDS011;63879;46.064;14.532;2024-03-07T08:14:15;20.02;;;9.88;;
75285;SDS011;63879;46.064;14.532;2024-03-07T08:16:40;23.85;;;10.18;;
75285;SDS011;63879;46.064;14.532;2024-03-07T08:19:06;22.13;;;10.45;;
75285;SDS011;63879;46.064;14.532;2024-03-07T08:21:33;18.42;;;9.32;;
75285;SDS011;63879;46.064;14.532;2024-03-07T08:23:59;22.58;;;11.30;;
75285;SDS011;63879;46.064;14.532;2024-03-07T08:26:28;21.70;;;9.77;;
75285;SDS011;63879;46.064;14.532;2024-03-07T08:28:54;24.00;;;10.10;;
75285;SDS011;63879;46.064;14.532;2024-03-07T08:31:19;22.10;;;9.80;;
75285;SDS011;63879;46.064;14.532;2024-03-07T08:33:45;21.80;;;10.43;;
75285;SDS011;63879;46.064;14.532;2024-03-07T08:36:11;23.13;;;11.10;;
75285;SDS011;63879;46.064;14.532;2024-03-07T08:38:37;15.82;;;8.98;;
75285;SDS011;63879;46.064;14.532;2024-03-07T08:41:02;18.55;;;10.25;;
75285;SDS011;63879;46.064;14.532;2024-03-07T08:43:28;16.00;;;8.73;;
75285;SDS011;63879;46.064;14.532;2024-03-07T08:45:53;16.80;;;8.43;;
75285;SDS011;63879;46.064;14.532;2024-03-07T08:48:19;19.30;;;9.00;;
75285;SDS011;63879;46.064;14.532;2024-03-07T08:50:44;18.52;;;8.55;;
75285;SDS011;63879;46.064;14.532;2024-03-07T08:53:10;17.42;;;8.25;;
75285;SDS011;63879;46.064;14.532;2024-03-07T08:55:35;19.17;;;8.05;;
75285;SDS011;63879;46.064;14.532;2024-03-07T08:58:01;17.88;;;10.88;;
75285;SDS011;63879;46.064;14.532;2024-03-07T09:00:26;16.10;;;7.22;;
75285;SDS011;63879;46.064;14.532;2024-03-07T09:02:56;15.05;;;7.35;;
75285;SDS011;63879;46.064;14.532;2024-03-07T09:05:23;16.77;;;7.82;;
75285;SDS011;63879;46.064;14.532;2024-03-07T09:07:49;18.33;;;8.85;;
75285;SDS011;63879;46.064;14.532;2024-03-07T09:10:16;15.93;;;7.88;;
75285;SDS011;63879;46.064;14.532;2024-03-07T09:12:42;18.30;;;9.10;;
75285;SDS011;63879;46.064;14.532;2024-03-07T09:15:09;15.35;;;6.93;;
75285;SDS011;63879;46.064;14.532;2024-03-07T09:17:35;13.00;;;7.03;;
75285;SDS011;63879;46.064;14.532;2024-03-07T09:20:02;16.15;;;8.13;;
75285;SDS011;63879;46.064;14.532;2024-03-07T09:22:30;14.10;;;7.28;;
75285;SDS011;63879;46.064;14.532;2024-03-07T09:24:56;13.57;;;7.10;;
75285;SDS011;63879;46.064;14.532;2024-03-07T09:27:22;13.00;;;7.40;;
75285;SDS011;63879;46.064;14.532;2024-03-07T09:29:48;14.00;;;6.95;;
75285;SDS011;63879;46.064;14.532;2024-03-07T09:32:13;14.48;;;6.75;;
75285;SDS011;63879;46.064;14.532;2024-03-07T09:34:39;14.23;;;7.22;;
75285;SDS011;63879;46.064;14.532;2024-03-07T09:37:05;15.52;;;8.20;;
75285;SDS011;63879;46.064;14.532;2024-03-07T09:39:33;12.55;;;8.05;;
75285;SDS011;63879;46.064;14.532;2024-03-07T09:42:05;15.32;;;7.45;;
75285;SDS011;63879;46.064;14.532;2024-03-07T09:44:35;13.25;;;7.38;;
75285;SDS011;63879;46.064;14.532;2024-03-07T09:47:01;11.95;;;7.63;;
75285;SDS011;63879;46.064;14.532;2024-03-07T09:49:27;12.18;;;7.57;;
75285;SDS011;63879;46.064;14.532;2024-03-07T09:51:53;14.32;;;6.93;;
75285;SDS011;63879;46.064;14.532;2024-03-07T09:54:24;13.18;;;7.40;;
75285;SDS011;63879;46.064;14.532;2024-03-07T09:56:53;12.38;;;6.95;;
75285;SDS011;63879;46.064;14.532;2024-03-07T09:59:19;13.98;;;7.30;;
75285;SDS011;63879;46.064;14.532;2024-03-07T10:01:48;11.48;;;6.65;;
75285;SDS011;63879;46.064;14.532;2024-03-07T10:04:16;13.77;;;6.80;;
75285;SDS011;63879;46.064;14.532;2024-03-07T10:06:52;16.25;;;6.70;;
75285;SDS011;63879;46.064;14.532;2024-03-07T10:09:18;12.75;;;6.35;;
75285;SDS011;63879;46.064;14.532;2024-03-07T10:11:54;13.52;;;6.07;;
75285;SDS011;63879;46.064;14.532;2024-03-07T10:14:21;12.98;;;5.90;;
75285;SDS011;63879;46.064;14.532;2024-03-07T10:16:46;10.90;;;6.05;;
75285;SDS011;63879;46.064;14.532;2024-03-07T10:19:12;12.80;;;8.75;;
75285;SDS011;63879;46.064;14.532;2024-03-07T10:21:40;12.05;;;6.10;;
75285;SDS011;63879;46.064;14.532;2024-03-07T10:24:06;10.20;;;5.88;;
75285;SDS011;63879;46.064;14.532;2024-03-07T10:26:35;11.52;;;5.85;;
75285;SDS011;63879;46.064;14.532;2024-03-07T10:29:06;12.10;;;6.22;;
75285;SDS011;63879;46.064;14.532;2024-03-07T10:31:35;10.60;;;6.07;;
75285;SDS011;63879;46.064;14.532;2024-03-07T10:34:02;12.45;;;6.68;;
75285;SDS011;63879;46.064;14.532;2024-03-07T10:36:33;11.48;;;6.53;;
75285;SDS011;63879;46.064;14.532;2024-03-07T10:39:00;12.05;;;6.00;;
75285;SDS011;63879;46.064;14.532;2024-03-07T10:41:45;10.77;;;5.32;;
75285;SDS011;63879;46.064;14.532;2024-03-07T10:44:23;13.30;;;6.13;;
75285;SDS011;63879;46.064;14.532;2024-03-07T10:46:54;16.25;;;7.97;;
75285;SDS011;63879;46.064;14.532;2024-03-07T10:49:20;12.73;;;6.03;;
75285;SDS011;63879;46.064;14.532;2024-03-07T10:51:57;11.52;;;6.30;;
75285;SDS011;63879;46.064;14.532;2024-03-07T10:54:36;13.05;;;5.80;;
75285;SDS011;63879;46.064;14.532;2024-03-07T10:57:15;10.38;;;6.20;;
75285;SDS011;63879;46.064;14.532;2024-03-07T10:59:58;9.55;;;5.93;;
75285;SDS011;63879;46.064;14.532;2024-03-07T11:03:00;11.75;;;6.15;;
75285;SDS011;63879;46.064;14.532;2024-03-07T11:05:19;11.52;;;6.25;;
75285;SDS011;63879;46.064;14.532;2024-03-07T11:07:49;10.07;;;5.85;;
75285;SDS011;63879;46.064;14.532;2024-03-07T11:10:15;10.82;;;5.80;;
75285;SDS011;63879;46.064;14.532;2024-03-07T11:12:42;11.80;;;6.47;;
75285;SDS011;63879;46.064;14.532;2024-03-07T11:15:09;13.90;;;7.68;;
75285;SDS011;63879;46.064;14.532;2024-03-07T11:17:45;10.73;;;6.65;;
75285;SDS011;63879;46.064;14.532;2024-03-07T11:22:52;11.95;;;7.20;;
75285;SDS011;63879;46.064;14.532;2024-03-07T11:30:21;10.65;;;6.25;;
75285;SDS011;63879;46.064;14.532;2024-03-07T11:32:48;9.75;;;5.95;;
75285;SDS011;63879;46.064;14.532;2024-03-07T11:35:32;10.23;;;6.40;;
75285;SDS011;63879;46.064;14.532;2024-03-07T11:38:00;9.98;;;5.80;;
75285;SDS011;63879;46.064;14.532;2024-03-07T11:42:54;10.93;;;6.03;;
75285;SDS011;63879;46.064;14.532;2024-03-07T11:45:30;10.95;;;6.25;;
75285;SDS011;63879;46.064;14.532;2024-03-07T11:48:03;9.43;;;5.03;;
75285;SDS011;63879;46.064;14.532;2024-03-07T11:50:34;11.20;;;8.23;;
75285;SDS011;63879;46.064;14.532;2024-03-07T11:53:06;12.32;;;5.80;;
75285;SDS011;63879;46.064;14.532;2024-03-07T11:55:33;9.70;;;5.38;;
75285;SDS011;63879;46.064;14.532;2024-03-07T12:00:40;10.52;;;4.90;;
75285;SDS011;63879;46.064;14.532;2024-03-07T12:03:10;8.63;;;4.82;;
75285;SDS011;63879;46.064;14.532;2024-03-07T12:05:46;9.27;;;4.50;;
75285;SDS011;63879;46.064;14.532;2024-03-07T12:08:12;9.05;;;4.68;;
75285;SDS011;63879;46.064;14.532;2024-03-07T12:10:38;8.65;;;5.20;;
75285;SDS011;63879;46.064;14.532;2024-03-07T12:13:07;10.48;;;6.10;;
75285;SDS011;63879;46.064;14.532;2024-03-07T12:15:33;9.88;;;6.70;;
75285;SDS011;63879;46.064;14.532;2024-03-07T12:18:00;10.85;;;7.53;;
75285;SDS011;63879;46.064;14.532;2024-03-07T12:20:27;8.13;;;4.80;;
75285;SDS011;63879;46.064;14.532;2024-03-07T12:22:56;8.05;;;5.10;;
75285;SDS011;63879;46.064;14.532;2024-03-07T12:25:27;8.73;;;5.35;;
75285;SDS011;63879;46.064;14.532;2024-03-07T12:28:04;9.00;;;4.90;;
75285;SDS011;63879;46.064;14.532;2024-03-07T12:30:34;10.45;;;5.45;;
75285;SDS011;63879;46.064;14.532;2024-03-07T12:33:01;15.50;;;5.93;;
75285;SDS011;63879;46.064;14.532;2024-03-07T12:35:32;8.73;;;4.47;;
75285;SDS011;63879;46.064;14.532;2024-03-07T12:37:58;9.75;;;5.10;;
75285;SDS011;63879;46.064;14.532;2024-03-07T12:40:24;9.02;;;4.80;;
75285;SDS011;63879;46.064;14.532;2024-03-07T12:42:54;8.63;;;5.18;;
75285;SDS011;63879;46.064;14.532;2024-03-07T12:45:19;9.98;;;4.90;;
75285;SDS011;63879;46.064;14.532;2024-03-07T12:47:48;8.18;;;5.07;;
75285;SDS011;63879;46.064;14.532;2024-03-07T12:50:19;11.85;;;5.88;;
75285;SDS011;63879;46.064;14.532;2024-03-07T12:52:46;8.82;;;4.97;;
75285;SDS011;63879;46.064;14.532;2024-03-07T12:55:15;9.73;;;4.78;;
75285;SDS011;63879;46.064;14.532;2024-03-07T12:57:43;8.55;;;4.35;;
75285;SDS011;63879;46.064;14.532;2024-03-07T13:00:09;9.00;;;4.72;;
75285;SDS011;63879;46.064;14.532;2024-03-07T13:02:44;9.70;;;4.82;;
75285;SDS011;63879;46.064;14.532;2024-03-07T13:05:12;11.32;;;5.13;;
75285;SDS011;63879;46.064;14.532;2024-03-07T13:07:45;8.60;;;4.70;;
75285;SDS011;63879;46.064;14.532;2024-03-07T13:10:12;14.02;;;4.53;;
75285;SDS011;63879;46.064;14.532;2024-03-07T13:15:07;10.02;;;5.05;;
75285;SDS011;63879;46.064;14.532;2024-03-07T13:17:35;9.43;;;5.10;;
75285;SDS011;63879;46.064;14.532;2024-03-07T13:20:01;16.60;;;6.18;;
75285;SDS011;63879;46.064;14.532;2024-03-07T13:22:26;17.67;;;5.60;;
75285;SDS011;63879;46.064;14.532;2024-03-07T13:24:53;14.02;;;6.20;;
75285;SDS011;63879;46.064;14.532;2024-03-07T13:27:18;8.10;;;5.00;;
75285;SDS011;63879;46.064;14.532;2024-03-07T13:29:53;15.93;;;5.90;;
75285;SDS011;63879;46.064;14.532;2024-03-07T13:32:18;22.25;;;6.97;;
75285;SDS011;63879;46.064;14.532;2024-03-07T13:34:44;11.40;;;4.25;;
75285;SDS011;63879;46.064;14.532;2024-03-07T13:37:10;9.82;;;4.20;;
75285;SDS011;63879;46.064;14.532;2024-03-07T13:39:43;10.63;;;4.28;;
75285;SDS011;63879;46.064;14.532;2024-03-07T13:42:08;5.35;;;3.30;;
75285;SDS011;63879;46.064;14.532;2024-03-07T13:44:36;8.25;;;4.28;;
75285;SDS011;63879;46.064;14.532;2024-03-07T13:49:32;7.57;;;4.30;;
75285;SDS011;63879;46.064;14.532;2024-03-07T13:51:59;9.10;;;5.53;;
75285;SDS011;63879;46.064;14.532;2024-03-07T13:54:36;12.57;;;6.57;;
75285;SDS011;63879;46.064;14.532;2024-03-07T13:59:50;12.80;;;4.70;;
75285;SDS011;63879;46.064;14.532;2024-03-07T14:26:25;10.75;;;5.63;;
75285;SDS011;63879;46.064;14.532;2024-03-07T14:31:29;9.30;;;5.03;;
75285;SDS011;63879;46.064;14.532;2024-03-07T14:36:40;8.75;;;4.85;;
75285;SDS011;63879;46.064;14.532;2024-03-07T14:39:10;9.68;;;5.47;;
75285;SDS011;63879;46.064;14.532;2024-03-07T14:44:29;8.88;;;4.72;;
75285;SDS011;63879;46.064;14.532;2024-03-07T14:46:57;8.05;;;4.55;;
75285;SDS011;63879;46.064;14.532;2024-03-07T14:49:24;7.50;;;3.88;;
75285;SDS011;63879;46.064;14.532;2024-03-07T14:51:50;10.20;;;5.60;;
75285;SDS011;63879;46.064;14.532;2024-03-07T14:54:19;8.88;;;4.45;;
75285;SDS011;63879;46.064;14.532;2024-03-07T14:56:47;8.60;;;4.53;;
75285;SDS011;63879;46.064;14.532;2024-03-07T14:59:12;7.13;;;4.32;;
75285;SDS011;63879;46.064;14.532;2024-03-07T15:01:38;9.30;;;5.50;;
75285;SDS011;63879;46.064;14.532;2024-03-07T15:04:04;7.55;;;5.05;;
75285;SDS011;63879;46.064;14.532;2024-03-07T15:06:34;9.30;;;4.85;;
75285;SDS011;63879;46.064;14.532;2024-03-07T15:09:00;9.23;;;4.78;;
75285;SDS011;63879;46.064;14.532;2024-03-07T15:11:45;8.13;;;5.20;;
75285;SDS011;63879;46.064;14.532;2024-03-07T15:14:10;7.97;;;4.75;;
75285;SDS011;63879;46.064;14.532;2024-03-07T15:16:36;9.02;;;6.90;;
75285;SDS011;63879;46.064;14.532;2024-03-07T15:19:06;11.77;;;6.70;;
75285;SDS011;63879;46.064;14.532;2024-03-07T15:21:32;9.05;;;5.70;;
75285;SDS011;63879;46.064;14.532;2024-03-07T15:23:58;9.95;;;5.53;;
75285;SDS011;63879;46.064;14.532;2024-03-07T15:26:25;7.90;;;4.35;;
75285;SDS011;63879;46.064;14.532;2024-03-07T15:28:51;8.00;;;7.10;;
75285;SDS011;63879;46.064;14.532;2024-03-07T15:31:19;9.13;;;4.80;;
75285;SDS011;63879;46.064;14.532;2024-03-07T15:33:47;9.30;;;5.00;;
75285;SDS011;63879;46.064;14.532;2024-03-07T15:36:15;9.00;;;5.68;;
75285;SDS011;63879;46.064;14.532;2024-03-07T15:38:41;9.23;;;4.97;;
75285;SDS011;63879;46.064;14.532;2024-03-07T15:41:07;11.88;;;5.65;;
75285;SDS011;63879;46.064;14.532;2024-03-07T15:43:35;10.30;;;5.97;;
75285;SDS011;63879;46.064;14.532;2024-03-07T15:46:00;8.48;;;5.10;;
75285;SDS011;63879;46.064;14.532;2024-03-07T15:50:54;11.77;;;4.07;;
75285;SDS011;63879;46.064;14.532;2024-03-07T15:53:22;9.40;;;4.18;;
75285;SDS011;63879;46.064;14.532;2024-03-07T15:55:48;7.95;;;4.78;;
75285;SDS011;63879;46.064;14.532;2024-03-07T15:58:14;7.15;;;4.70;;
75285;SDS011;63879;46.064;14.532;2024-03-07T16:00:42;7.93;;;4.70;;
75285;SDS011;63879;46.064;14.532;2024-03-07T16:03:12;5.88;;;4.30;;
75285;SDS011;63879;46.064;14.532;2024-03-07T16:05:38;9.73;;;7.70;;
75285;SDS011;63879;46.064;14.532;2024-03-07T16:08:06;8.25;;;4.30;;
75285;SDS011;63879;46.064;14.532;2024-03-07T16:10:34;9.05;;;4.95;;
75285;SDS011;63879;46.064;14.532;2024-03-07T16:13:06;9.02;;;5.00;;
75285;SDS011;63879;46.064;14.532;2024-03-07T16:15:36;7.65;;;4.20;;
75285;SDS011;63879;46.064;14.532;2024-03-07T16:18:02;9.88;;;5.28;;
75285;SDS011;63879;46.064;14.532;2024-03-07T16:20:29;8.85;;;5.35;;
75285;SDS011;63879;46.064;14.532;2024-03-07T16:22:55;9.55;;;4.63;;
75285;SDS011;63879;46.064;14.532;2024-03-07T16:25:21;9.90;;;4.72;;
75285;SDS011;63879;46.064;14.532;2024-03-07T16:27:48;8.15;;;4.25;;
75285;SDS011;63879;46.064;14.532;2024-03-07T16:30:15;7.30;;;4.72;;
75285;SDS011;63879;46.064;14.532;2024-03-07T16:32:43;6.93;;;4.07;;
75285;SDS011;63879;46.064;14.532;2024-03-07T16:35:15;8.38;;;4.22;;
75285;SDS011;63879;46.064;14.532;2024-03-07T16:37:42;7.68;;;4.82;;
75285;SDS011;63879;46.064;14.532;2024-03-07T16:40:09;8.43;;;4.40;;
75285;SDS011;63879;46.064;14.532;2024-03-07T16:42:42;8.40;;;4.30;;
75285;SDS011;63879;46.064;14.532;2024-03-07T16:45:12;9.57;;;5.47;;
75285;SDS011;63879;46.064;14.532;2024-03-07T16:47:44;9.43;;;4.80;;
75285;SDS011;63879;46.064;14.532;2024-03-07T16:50:13;7.72;;;4.40;;
75285;SDS011;63879;46.064;14.532;2024-03-07T16:52:39;9.43;;;4.63;;
75285;SDS011;63879;46.064;14.532;2024-03-07T16:55:06;10.00;;;4.93;;
75285;SDS011;63879;46.064;14.532;2024-03-07T16:57:39;10.48;;;4.97;;
75285;SDS011;63879;46.064;14.532;2024-03-07T17:00:06;8.63;;;4.00;;
75285;SDS011;63879;46.064;14.532;2024-03-07T17:02:34;8.23;;;4.88;;
75285;SDS011;63879;46.064;14.532;2024-03-07T17:05:04;8.07;;;4.28;;
75285;SDS011;63879;46.064;14.532;2024-03-07T17:07:38;9.07;;;4.60;;
75285;SDS011;63879;46.064;14.532;2024-03-07T17:10:03;10.85;;;4.90;;
75285;SDS011;63879;46.064;14.532;2024-03-07T17:12:31;9.48;;;5.38;;
75285;SDS011;63879;46.064;14.532;2024-03-07T17:14:56;8.13;;;4.97;;
75285;SDS011;63879;46.064;14.532;2024-03-07T17:17:22;8.98;;;5.30;;
75285;SDS011;63879;46.064;14.532;2024-03-07T17:19:48;8.63;;;4.75;;
75285;SDS011;63879;46.064;14.532;2024-03-07T17:22:13;12.25;;;5.68;;
75285;SDS011;63879;46.064;14.532;2024-03-07T17:24:40;11.07;;;5.30;;
75285;SDS011;63879;46.064;14.532;2024-03-07T17:27:06;11.45;;;5.45;;
75285;SDS011;63879;46.064;14.532;2024-03-07T17:29:31;6.82;;;3.78;;
75285;SDS011;63879;46.064;14.532;2024-03-07T17:31:57;8.02;;;4.50;;
75285;SDS011;63879;46.064;14.532;2024-03-07T17:34:24;7.28;;;4.82;;
75285;SDS011;63879;46.064;14.532;2024-03-07T17:36:50;6.47;;;3.13;;
75285;SDS011;63879;46.064;14.532;2024-03-07T17:39:15;6.72;;;2.85;;
75285;SDS011;63879;46.064;14.532;2024-03-07T17:41:41;7.05;;;3.75;;
75285;SDS011;63879;46.064;14.532;2024-03-07T17:44:06;8.73;;;4.72;;
75285;SDS011;63879;46.064;14.532;2024-03-07T17:46:42;10.05;;;6.70;;
75285;SDS011;63879;46.064;14.532;2024-03-07T17:49:11;6.85;;;3.83;;
75285;SDS011;63879;46.064;14.532;2024-03-07T17:51:37;7.68;;;4.32;;
75285;SDS011;63879;46.064;14.532;2024-03-07T17:54:02;8.15;;;3.72;;
75285;SDS011;63879;46.064;14.532;2024-03-07T17:56:33;9.40;;;4.70;;
75285;SDS011;63879;46.064;14.532;2024-03-07T17:58:59;6.32;;;4.10;;
75285;SDS011;63879;46.064;14.532;2024-03-07T18:01:25;7.50;;;4.60;;
75285;SDS011;63879;46.064;14.532;2024-03-07T18:03:51;10.05;;;5.50;;
75285;SDS011;63879;46.064;14.532;2024-03-07T18:06:17;8.57;;;3.95;;
75285;SDS011;63879;46.064;14.532;2024-03-07T18:08:47;9.35;;;5.05;;
75285;SDS011;63879;46.064;14.532;2024-03-07T18:11:16;10.98;;;6.10;;
75285;SDS011;63879;46.064;14.532;2024-03-07T18:13:42;11.68;;;6.25;;
75285;SDS011;63879;46.064;14.532;2024-03-07T18:16:08;11.60;;;5.25;;
75285;SDS011;63879;46.064;14.532;2024-03-07T18:18:35;14.57;;;6.45;;
75285;SDS011;63879;46.064;14.532;2024-03-07T18:21:03;10.80;;;5.63;;
75285;SDS011;63879;46.064;14.532;2024-03-07T18:23:28;7.03;;;3.55;;
75285;SDS011;63879;46.064;14.532;2024-03-07T18:25:54;8.02;;;3.38;;
75285;SDS011;63879;46.064;14.532;2024-03-07T18:28:21;8.38;;;4.88;;
75285;SDS011;63879;46.064;14.532;2024-03-07T18:30:47;5.80;;;3.35;;
75285;SDS011;63879;46.064;14.532;2024-03-07T18:33:14;9.32;;;4.15;;
75285;SDS011;63879;46.064;14.532;2024-03-07T18:35:39;8.90;;;4.05;;
75285;SDS011;63879;46.064;14.532;2024-03-07T18:38:05;8.25;;;3.78;;
75285;SDS011;63879;46.064;14.532;2024-03-07T18:40:32;7.22;;;4.35;;
75285;SDS011;63879;46.064;14.532;2024-03-07T18:42:58;5.45;;;2.78;;
75285;SDS011;63879;46.064;14.532;2024-03-07T18:45:26;9.32;;;4.93;;
75285;SDS011;63879;46.064;14.532;2024-03-07T18:47:52;7.25;;;4.75;;
75285;SDS011;63879;46.064;14.532;2024-03-07T18:50:22;7.85;;;3.53;;
75285;SDS011;63879;46.064;14.532;2024-03-07T18:52:52;5.65;;;3.97;;
75285;SDS011;63879;46.064;14.532;2024-03-07T18:55:19;9.10;;;6.18;;
75285;SDS011;63879;46.064;14.532;2024-03-07T18:57:54;6.68;;;3.50;;
75285;SDS011;63879;46.064;14.532;2024-03-07T19:00:22;7.45;;;4.18;;
75285;SDS011;63879;46.064;14.532;2024-03-07T19:05:35;3.15;;;2.08;;
75285;SDS011;63879;46.064;14.532;2024-03-07T19:08:08;5.10;;;3.42;;
75285;SDS011;63879;46.064;14.532;2024-03-07T19:10:43;4.55;;;2.67;;
75285;SDS011;63879;46.064;14.532;2024-03-07T19:13:18;4.38;;;2.35;;
75285;SDS011;63879;46.064;14.532;2024-03-07T19:15:48;4.03;;;2.92;;
75285;SDS011;63879;46.064;14.532;2024-03-07T19:18:14;4.15;;;2.50;;
75285;SDS011;63879;46.064;14.532;2024-03-07T19:20:40;3.25;;;1.63;;
75285;SDS011;63879;46.064;14.532;2024-03-07T19:23:06;4.35;;;2.20;;
75285;SDS011;63879;46.064;14.532;2024-03-07T19:25:38;4.05;;;1.80;;
75285;SDS011;63879;46.064;14.532;2024-03-07T19:28:05;4.22;;;2.28;;
75285;SDS011;63879;46.064;14.532;2024-03-07T19:30:38;4.93;;;2.47;;
75285;SDS011;63879;46.064;14.532;2024-03-07T19:33:05;5.93;;;2.83;;
75285;SDS011;63879;46.064;14.532;2024-03-07T19:35:41;3.25;;;2.03;;
75285;SDS011;63879;46.064;14.532;2024-03-07T19:38:11;4.82;;;2.03;;
75285;SDS011;63879;46.064;14.532;2024-03-07T19:40:37;6.03;;;4.75;;
75285;SDS011;63879;46.064;14.532;2024-03-07T19:43:03;2.83;;;1.83;;
75285;SDS011;63879;46.064;14.532;2024-03-07T19:45:31;4.78;;;2.50;;
75285;SDS011;63879;46.064;14.532;2024-03-07T19:47:58;5.57;;;2.08;;
75285;SDS011;63879;46.064;14.532;2024-03-07T19:50:24;4.13;;;1.95;;
75285;SDS011;63879;46.064;14.532;2024-03-07T19:52:50;6.70;;;5.30;;
75285;SDS011;63879;46.064;14.532;2024-03-07T19:55:16;4.07;;;1.98;;
75285;SDS011;63879;46.064;14.532;2024-03-07T19:57:44;1.33;;;1.10;;
75285;SDS011;63879;46.064;14.532;2024-03-07T20:00:13;1.98;;;1.63;;
75285;SDS011;63879;46.064;14.532;2024-03-07T20:02:42;3.70;;;2.60;;
75285;SDS011;63879;46.064;14.532;2024-03-07T20:05:11;3.17;;;1.35;;
75285;SDS011;63879;46.064;14.532;2024-03-07T20:07:50;3.83;;;1.92;;
75285;SDS011;63879;46.064;14.532;2024-03-07T20:10:16;1.85;;;1.55;;
75285;SDS011;63879;46.064;14.532;2024-03-07T20:12:42;2.47;;;1.40;;
75285;SDS011;63879;46.064;14.532;2024-03-07T20:15:09;4.60;;;1.65;;
75285;SDS011;63879;46.064;14.532;2024-03-07T20:17:41;2.95;;;1.90;;
75285;SDS011;63879;46.064;14.532;2024-03-07T20:20:08;2.47;;;1.70;;
75285;SDS011;63879;46.064;14.532;2024-03-07T20:22:45;4.47;;;2.70;;
75285;SDS011;63879;46.064;14.532;2024-03-07T20:25:12;5.07;;;2.08;;
75285;SDS011;63879;46.064;14.532;2024-03-07T20:27:45;5.90;;;2.13;;
75285;SDS011;63879;46.064;14.532;2024-03-07T20:30:15;2.72;;;1.77;;
75285;SDS011;63879;46.064;14.532;2024-03-07T20:32:41;4.53;;;2.65;;
75285;SDS011;63879;46.064;14.532;2024-03-07T20:35:08;3.65;;;1.40;;
75285;SDS011;63879;46.064;14.532;2024-03-07T20:37:37;4.60;;;2.15;;
75285;SDS011;63879;46.064;14.532;2024-03-07T20:40:03;3.42;;;1.85;;
75285;SDS011;63879;46.064;14.532;2024-03-07T20:42:36;3.83;;;2.17;;
75285;SDS011;63879;46.064;14.532;2024-03-07T20:45:06;1.02;;;0.93;;
75285;SDS011;63879;46.064;14.532;2024-03-07T20:50:12;4.15;;;2.40;;
75285;SDS011;63879;46.064;14.532;2024-03-07T20:52:41;4.13;;;2.25;;
75285;SDS011;63879;46.064;14.532;2024-03-07T20:55:10;4.82;;;2.90;;
75285;SDS011;63879;46.064;14.532;2024-03-07T20:57:41;3.83;;;2.10;;
75285;SDS011;63879;46.064;14.532;2024-03-07T21:00:07;4.65;;;3.00;;
75285;SDS011;63879;46.064;14.532;2024-03-07T21:02:40;5.03;;;2.50;;
75285;SDS011;63879;46.064;14.532;2024-03-07T21:05:06;5.30;;;2.80;;
75285;SDS011;63879;46.064;14.532;2024-03-07T21:07:44;1.80;;;1.13;;
75285;SDS011;63879;46.064;14.532;2024-03-07T21:10:11;2.42;;;1.33;;
75285;SDS011;63879;46.064;14.532;2024-03-07T21:12:38;5.60;;;2.40;;
75285;SDS011;63879;46.064;14.532;2024-03-07T21:15:08;5.22;;;4.60;;
75285;SDS011;63879;46.064;14.532;2024-03-07T21:17:34;3.88;;;3.58;;
75285;SDS011;63879;46.064;14.532;2024-03-07T21:20:05;3.75;;;1.88;;
75285;SDS011;63879;46.064;14.532;2024-03-07T21:22:41;3.25;;;1.80;;
75285;SDS011;63879;46.064;14.532;2024-03-07T21:25:08;2.58;;;1.40;;
75285;SDS011;63879;46.064;14.532;2024-03-07T21:27:41;4.30;;;2.20;;
75285;SDS011;63879;46.064;14.532;2024-03-07T21:30:08;1.67;;;1.38;;
75285;SDS011;63879;46.064;14.532;2024-03-07T21:32:40;3.35;;;1.63;;
75285;SDS011;63879;46.064;14.532;2024-03-07T21:35:07;2.63;;;1.40;;
75285;SDS011;63879;46.064;14.532;2024-03-07T21:37:36;4.05;;;1.63;;
75285;SDS011;63879;46.064;14.532;2024-03-07T21:40:08;4.50;;;1.65;;
75285;SDS011;63879;46.064;14.532;2024-03-07T21:42:34;1.92;;;1.23;;
75285;SDS011;63879;46.064;14.532;2024-03-07T21:45:01;3.92;;;3.63;;
75285;SDS011;63879;46.064;14.532;2024-03-07T21:47:27;2.35;;;1.73;;
75285;SDS011;63879;46.064;14.532;2024-03-07T21:49:52;2.83;;;1.20;;
75285;SDS011;63879;46.064;14.532;2024-03-07T21:52:18;2.28;;;1.38;;
75285;SDS011;63879;46.064;14.532;2024-03-07T21:54:44;3.10;;;1.50;;
75285;SDS011;63879;46.064;14.532;2024-03-07T21:57:11;1.33;;;1.10;;
75285;SDS011;63879;46.064;14.532;2024-03-07T21:59:37;2.88;;;1.58;;
